sensor_id;sensor_type;location;lat;lon;timestamp;P1;durP1;ratioP1;P2;durP2;ratioP2
5939;SDS011;2995;-31.998;115.906;2023-08-24T00:01:49;5.37;;;4.80;;
5939;SDS011;2995;-31.998;115.906;2023-08-24T00:04:20;7.00;;;4.23;;
5939;SDS011;2995;-31.998;115.906;2023-08-24T00:06:51;7.53;;;4.67;;
5939;SDS011;2995;-31.998;115.906;2023-08-24T00:09:23;5.77;;;4.40;;
5939;SDS011;2995;-31.998;115.906;2023-08-24T00:11:57;6.40;;;4.33;;
5939;SDS011;2995;-31.998;115.906;2023-08-24T00:14:28;7.90;;;4.13;;
5939;SDS011;2995;-31.998;115.906;2023-08-24T00:16:59;6.23;;;4.13;;
5939;SDS011;2995;-31.998;115.906;2023-08-24T00:19:31;6.27;;;4.33;;
5939;SDS011;2995;-31.998;115.906;2023-08-24T00:22:02;8.33;;;3.90;;
5939;SDS011;2995;-31.998;115.906;2023-08-24T00:24:33;16.33;;;5.43;;
5939;SDS011;2995;-31.998;115.906;2023-08-24T00:27:06;3.80;;;3.30;;
5939;SDS011;2995;-31.998;115.906;2023-08-24T00:29:37;6.97;;;4.53;;
5939;SDS011;2995;-31.998;115.906;2023-08-24T00:32:09;7.47;;;3.87;;
5939;SDS011;2995;-31.998;115.906;2023-08-24T00:34:40;4.87;;;4.30;;
5939;SDS011;2995;-31.998;115.906;2023-08-24T00:37:11;7.30;;;5.50;;
5939;SDS011;2995;-31.998;115.906;2023-08-24T00:39:42;6.60;;;4.47;;
5939;SDS011;2995;-31.998;115.906;2023-08-24T00:42:16;6.00;;;4.20;;
5939;SDS011;2995;-31.998;115.906;2023-08-24T00:44:48;8.73;;;4.40;;
5939;SDS011;2995;-31.998;115.906;2023-08-24T00:47:20;6.73;;;5.00;;
5939;SDS011;2995;-31.998;115.906;2023-08-24T00:49:51;9.00;;;5.57;;
5939;SDS011;2995;-31.998;115.906;2023-08-24T00:52:24;6.40;;;4.03;;
5939;SDS011;2995;-31.998;115.906;2023-08-24T00:54:57;6.60;;;4.60;;
5939;SDS011;2995;-31.998;115.906;2023-08-24T00:57:32;6.90;;;5.97;;
5939;SDS011;2995;-31.998;115.906;2023-08-24T01:00:04;7.00;;;5.50;;
5939;SDS011;2995;-31.998;115.906;2023-08-24T01:02:37;8.57;;;5.50;;
5939;SDS011;2995;-31.998;115.906;2023-08-24T01:05:08;7.97;;;5.27;;
5939;SDS011;2995;-31.998;115.906;2023-08-24T01:07:39;10.50;;;5.10;;
5939;SDS011;2995;-31.998;115.906;2023-08-24T01:10:11;11.30;;;5.87;;
5939;SDS011;2995;-31.998;115.906;2023-08-24T01:12:50;13.23;;;6.00;;
5939;SDS011;2995;-31.998;115.906;2023-08-24T01:15:28;9.93;;;6.17;;
5939;SDS011;2995;-31.998;115.906;2023-08-24T01:18:05;8.27;;;5.50;;
5939;SDS011;2995;-31.998;115.906;2023-08-24T01:20:40;19.13;;;6.33;;
5939;SDS011;2995;-31.998;115.906;2023-08-24T01:23:16;8.90;;;5.43;;
5939;SDS011;2995;-31.998;115.906;2023-08-24T01:26:02;9.63;;;3.40;;
5939;SDS011;2995;-31.998;115.906;2023-08-24T01:28:43;10.47;;;4.00;;
5939;SDS011;2995;-31.998;115.906;2023-08-24T01:31:15;10.40;;;3.17;;
5939;SDS011;2995;-31.998;115.906;2023-08-24T01:33:46;7.20;;;3.23;;
5939;SDS011;2995;-31.998;115.906;2023-08-24T01:36:18;3.37;;;2.23;;
5939;SDS011;2995;-31.998;115.906;2023-08-24T01:38:52;2.80;;;2.07;;
5939;SDS011;2995;-31.998;115.906;2023-08-24T01:41:35;4.93;;;2.43;;
5939;SDS011;2995;-31.998;115.906;2023-08-24T01:44:09;3.90;;;2.30;;
5939;SDS011;2995;-31.998;115.906;2023-08-24T01:46:42;2.30;;;1.70;;
5939;SDS011;2995;-31.998;115.906;2023-08-24T01:49:15;3.00;;;1.10;;
5939;SDS011;2995;-31.998;115.906;2023-08-24T01:51:47;1.93;;;1.70;;
5939;SDS011;2995;-31.998;115.906;2023-08-24T01:54:19;2.03;;;1.30;;
5939;SDS011;2995;-31.998;115.906;2023-08-24T01:56:53;2.10;;;1.13;;
5939;SDS011;2995;-31.998;115.906;2023-08-24T01:59:24;2.63;;;1.13;;
5939;SDS011;2995;-31.998;115.906;2023-08-24T02:01:55;3.53;;;1.60;;
5939;SDS011;2995;-31.998;115.906;2023-08-24T02:04:27;6.93;;;1.50;;
5939;SDS011;2995;-31.998;115.906;2023-08-24T02:06:58;5.57;;;1.43;;
5939;SDS011;2995;-31.998;115.906;2023-08-24T02:09:29;1.80;;;0.80;;
5939;SDS011;2995;-31.998;115.906;2023-08-24T02:12:02;2.00;;;1.20;;
5939;SDS011;2995;-31.998;115.906;2023-08-24T02:14:34;1.40;;;1.20;;
5939;SDS011;2995;-31.998;115.906;2023-08-24T02:17:05;4.43;;;1.10;;
5939;SDS011;2995;-31.998;115.906;2023-08-24T02:19:36;1.20;;;1.03;;
5939;SDS011;2995;-31.998;115.906;2023-08-24T02:22:07;4.27;;;2.40;;
5939;SDS011;2995;-31.998;115.906;2023-08-24T02:24:38;3.90;;;1.80;;
5939;SDS011;2995;-31.998;115.906;2023-08-24T02:27:12;1.90;;;0.90;;
5939;SDS011;2995;-31.998;115.906;2023-08-24T02:29:43;2.70;;;1.00;;
5939;SDS011;2995;-31.998;115.906;2023-08-24T02:32:14;2.27;;;0.87;;
5939;SDS011;2995;-31.998;115.906;2023-08-24T02:34:45;1.73;;;0.87;;
5939;SDS011;2995;-31.998;115.906;2023-08-24T02:37:16;1.60;;;1.00;;
5939;SDS011;2995;-31.998;115.906;2023-08-24T02:39:48;1.20;;;0.90;;
5939;SDS011;2995;-31.998;115.906;2023-08-24T02:42:21;1.80;;;0.90;;
5939;SDS011;2995;-31.998;115.906;2023-08-24T02:44:52;2.03;;;0.90;;
5939;SDS011;2995;-31.998;115.906;2023-08-24T02:47:24;0.80;;;0.70;;
5939;SDS011;2995;-31.998;115.906;2023-08-24T02:49:55;2.00;;;0.90;;
5939;SDS011;2995;-31.998;115.906;2023-08-24T02:52:26;5.57;;;1.20;;
5939;SDS011;2995;-31.998;115.906;2023-08-24T02:54:58;1.93;;;0.90;;
5939;SDS011;2995;-31.998;115.906;2023-08-24T02:57:32;1.03;;;0.90;;
5939;SDS011;2995;-31.998;115.906;2023-08-24T03:00:05;2.57;;;1.50;;
5939;SDS011;2995;-31.998;115.906;2023-08-24T03:02:39;3.87;;;1.40;;
5939;SDS011;2995;-31.998;115.906;2023-08-24T03:05:11;1.67;;;1.00;;
5939;SDS011;2995;-31.998;115.906;2023-08-24T03:07:42;3.97;;;1.73;;
5939;SDS011;2995;-31.998;115.906;2023-08-24T03:10:13;1.73;;;1.37;;
5939;SDS011;2995;-31.998;115.906;2023-08-24T03:12:46;3.63;;;1.30;;
5939;SDS011;2995;-31.998;115.906;2023-08-24T03:15:18;3.07;;;1.60;;
5939;SDS011;2995;-31.998;115.906;2023-08-24T03:17:49;3.10;;;1.37;;
5939;SDS011;2995;-31.998;115.906;2023-08-24T03:20:21;3.47;;;1.50;;
5939;SDS011;2995;-31.998;115.906;2023-08-24T03:22:52;3.83;;;1.37;;
5939;SDS011;2995;-31.998;115.906;2023-08-24T03:25:23;4.00;;;1.63;;
5939;SDS011;2995;-31.998;115.906;2023-08-24T03:27:57;1.53;;;1.40;;
5939;SDS011;2995;-31.998;115.906;2023-08-24T03:30:28;4.40;;;1.33;;
5939;SDS011;2995;-31.998;115.906;2023-08-24T03:32:59;1.80;;;1.40;;
5939;SDS011;2995;-31.998;115.906;2023-08-24T03:35:31;2.70;;;1.50;;
5939;SDS011;2995;-31.998;115.906;2023-08-24T03:38:02;2.07;;;1.10;;
5939;SDS011;2995;-31.998;115.906;2023-08-24T03:40:34;2.27;;;1.47;;
5939;SDS011;2995;-31.998;115.906;2023-08-24T03:43:07;3.90;;;1.77;;
5939;SDS011;2995;-31.998;115.906;2023-08-24T03:45:39;3.70;;;3.33;;
5939;SDS011;2995;-31.998;115.906;2023-08-24T03:48:11;3.57;;;1.13;;
5939;SDS011;2995;-31.998;115.906;2023-08-24T03:50:42;1.20;;;1.10;;
5939;SDS011;2995;-31.998;115.906;2023-08-24T03:53:14;2.07;;;1.10;;
5939;SDS011;2995;-31.998;115.906;2023-08-24T03:55:47;1.53;;;1.10;;
5939;SDS011;2995;-31.998;115.906;2023-08-24T03:58:20;1.80;;;1.30;;
5939;SDS011;2995;-31.998;115.906;2023-08-24T04:00:52;2.33;;;1.30;;
5939;SDS011;2995;-31.998;115.906;2023-08-24T04:03:23;1.57;;;1.00;;
5939;SDS011;2995;-31.998;115.906;2023-08-24T04:05:54;1.47;;;0.80;;
5939;SDS011;2995;-31.998;115.906;2023-08-24T04:08:26;1.30;;;0.80;;
5939;SDS011;2995;-31.998;115.906;2023-08-24T04:10:57;0.90;;;0.80;;
5939;SDS011;2995;-31.998;115.906;2023-08-24T04:13:30;5.40;;;1.00;;
5939;SDS011;2995;-31.998;115.906;2023-08-24T04:16:01;1.43;;;0.90;;
5939;SDS011;2995;-31.998;115.906;2023-08-24T04:18:33;1.17;;;0.80;;
5939;SDS011;2995;-31.998;115.906;2023-08-24T04:21:04;2.40;;;0.93;;
5939;SDS011;2995;-31.998;115.906;2023-08-24T04:23:35;1.50;;;0.90;;
5939;SDS011;2995;-31.998;115.906;2023-08-24T04:26:11;1.73;;;1.10;;
5939;SDS011;2995;-31.998;115.906;2023-08-24T04:28:44;2.17;;;1.00;;
5939;SDS011;2995;-31.998;115.906;2023-08-24T04:31:16;5.33;;;0.80;;
5939;SDS011;2995;-31.998;115.906;2023-08-24T04:33:47;1.73;;;1.00;;
5939;SDS011;2995;-31.998;115.906;2023-08-24T04:36:19;1.00;;;0.83;;
5939;SDS011;2995;-31.998;115.906;2023-08-24T04:38:50;1.27;;;0.97;;
5939;SDS011;2995;-31.998;115.906;2023-08-24T04:41:21;1.90;;;0.90;;
5939;SDS011;2995;-31.998;115.906;2023-08-24T04:43:54;3.03;;;0.80;;
5939;SDS011;2995;-31.998;115.906;2023-08-24T04:46:25;2.63;;;0.83;;
5939;SDS011;2995;-31.998;115.906;2023-08-24T04:48:57;3.50;;;1.00;;
5939;SDS011;2995;-31.998;115.906;2023-08-24T04:51:28;1.97;;;0.97;;
5939;SDS011;2995;-31.998;115.906;2023-08-24T04:53:59;1.77;;;1.00;;
5939;SDS011;2995;-31.998;115.906;2023-08-24T04:56:31;2.40;;;1.07;;
5939;SDS011;2995;-31.998;115.906;2023-08-24T04:59:04;1.77;;;1.00;;
5939;SDS011;2995;-31.998;115.906;2023-08-24T05:01:36;6.83;;;1.00;;
5939;SDS011;2995;-31.998;115.906;2023-08-24T05:04:08;1.63;;;1.10;;
5939;SDS011;2995;-31.998;115.906;2023-08-24T05:06:39;1.37;;;0.90;;
5939;SDS011;2995;-31.998;115.906;2023-08-24T05:09:10;0.97;;;0.80;;
5939;SDS011;2995;-31.998;115.906;2023-08-24T05:11:41;2.00;;;1.00;;
5939;SDS011;2995;-31.998;115.906;2023-08-24T05:14:15;3.13;;;1.20;;
5939;SDS011;2995;-31.998;115.906;2023-08-24T05:16:47;1.70;;;1.03;;
5939;SDS011;2995;-31.998;115.906;2023-08-24T05:19:18;1.53;;;0.90;;
5939;SDS011;2995;-31.998;115.906;2023-08-24T05:21:49;2.20;;;1.00;;
5939;SDS011;2995;-31.998;115.906;2023-08-24T05:24:21;8.23;;;1.13;;
5939;SDS011;2995;-31.998;115.906;2023-08-24T05:26:52;1.80;;;1.03;;
5939;SDS011;2995;-31.998;115.906;2023-08-24T05:29:25;1.83;;;1.10;;
5939;SDS011;2995;-31.998;115.906;2023-08-24T05:31:56;1.53;;;1.00;;
5939;SDS011;2995;-31.998;115.906;2023-08-24T05:34:29;2.13;;;1.00;;
5939;SDS011;2995;-31.998;115.906;2023-08-24T05:37:07;1.67;;;1.00;;
5939;SDS011;2995;-31.998;115.906;2023-08-24T05:39:39;3.73;;;1.00;;
5939;SDS011;2995;-31.998;115.906;2023-08-24T05:42:10;1.30;;;0.90;;
5939;SDS011;2995;-31.998;115.906;2023-08-24T05:44:43;1.50;;;1.00;;
5939;SDS011;2995;-31.998;115.906;2023-08-24T05:47:14;1.50;;;1.20;;
5939;SDS011;2995;-31.998;115.906;2023-08-24T05:49:45;1.50;;;1.03;;
5939;SDS011;2995;-31.998;115.906;2023-08-24T05:52:16;4.00;;;1.17;;
5939;SDS011;2995;-31.998;115.906;2023-08-24T05:54:48;2.30;;;1.03;;
5939;SDS011;2995;-31.998;115.906;2023-08-24T05:57:19;1.57;;;1.00;;
5939;SDS011;2995;-31.998;115.906;2023-08-24T05:59:52;2.17;;;0.93;;
5939;SDS011;2995;-31.998;115.906;2023-08-24T06:02:23;1.23;;;1.03;;
5939;SDS011;2995;-31.998;115.906;2023-08-24T06:05:04;1.63;;;0.80;;
5939;SDS011;2995;-31.998;115.906;2023-08-24T06:07:40;1.37;;;1.13;;
5939;SDS011;2995;-31.998;115.906;2023-08-24T06:10:12;4.20;;;1.30;;
5939;SDS011;2995;-31.998;115.906;2023-08-24T06:12:43;1.33;;;0.90;;
5939;SDS011;2995;-31.998;115.906;2023-08-24T06:15:17;2.00;;;1.00;;
5939;SDS011;2995;-31.998;115.906;2023-08-24T06:17:50;1.20;;;1.00;;
5939;SDS011;2995;-31.998;115.906;2023-08-24T06:20:21;1.77;;;1.03;;
5939;SDS011;2995;-31.998;115.906;2023-08-24T06:22:53;1.50;;;0.97;;
5939;SDS011;2995;-31.998;115.906;2023-08-24T06:25:24;3.63;;;1.03;;
5939;SDS011;2995;-31.998;115.906;2023-08-24T06:27:55;2.03;;;1.30;;
5939;SDS011;2995;-31.998;115.906;2023-08-24T06:30:32;2.57;;;1.07;;
5939;SDS011;2995;-31.998;115.906;2023-08-24T06:33:06;3.73;;;1.40;;
5939;SDS011;2995;-31.998;115.906;2023-08-24T06:35:37;2.10;;;0.93;;
5939;SDS011;2995;-31.998;115.906;2023-08-24T06:38:09;1.40;;;0.70;;
5939;SDS011;2995;-31.998;115.906;2023-08-24T06:40:40;1.03;;;0.90;;
5939;SDS011;2995;-31.998;115.906;2023-08-24T06:43:12;2.00;;;1.10;;
5939;SDS011;2995;-31.998;115.906;2023-08-24T06:45:46;1.20;;;0.90;;
5939;SDS011;2995;-31.998;115.906;2023-08-24T06:48:17;1.37;;;0.93;;
5939;SDS011;2995;-31.998;115.906;2023-08-24T06:50:48;1.00;;;0.90;;
5939;SDS011;2995;-31.998;115.906;2023-08-24T06:53:20;2.97;;;1.00;;
5939;SDS011;2995;-31.998;115.906;2023-08-24T06:55:54;4.83;;;1.00;;
5939;SDS011;2995;-31.998;115.906;2023-08-24T06:58:25;1.40;;;1.00;;
5939;SDS011;2995;-31.998;115.906;2023-08-24T07:00:58;4.73;;;1.07;;
5939;SDS011;2995;-31.998;115.906;2023-08-24T07:03:46;2.60;;;1.10;;
5939;SDS011;2995;-31.998;115.906;2023-08-24T07:06:17;3.70;;;1.23;;
5939;SDS011;2995;-31.998;115.906;2023-08-24T07:08:48;1.80;;;0.90;;
5939;SDS011;2995;-31.998;115.906;2023-08-24T07:11:20;2.17;;;1.00;;
5939;SDS011;2995;-31.998;115.906;2023-08-24T07:13:51;5.77;;;1.30;;
5939;SDS011;2995;-31.998;115.906;2023-08-24T07:16:24;1.63;;;0.93;;
5939;SDS011;2995;-31.998;115.906;2023-08-24T07:18:55;3.07;;;1.00;;
5939;SDS011;2995;-31.998;115.906;2023-08-24T07:21:27;2.80;;;1.30;;
5939;SDS011;2995;-31.998;115.906;2023-08-24T07:23:58;1.53;;;1.20;;
5939;SDS011;2995;-31.998;115.906;2023-08-24T07:26:29;2.10;;;0.90;;
5939;SDS011;2995;-31.998;115.906;2023-08-24T07:29:01;2.30;;;1.10;;
5939;SDS011;2995;-31.998;115.906;2023-08-24T07:31:34;1.57;;;1.10;;
5939;SDS011;2995;-31.998;115.906;2023-08-24T07:34:05;3.03;;;1.70;;
5939;SDS011;2995;-31.998;115.906;2023-08-24T07:36:36;4.20;;;1.50;;
5939;SDS011;2995;-31.998;115.906;2023-08-24T07:39:08;2.07;;;1.40;;
5939;SDS011;2995;-31.998;115.906;2023-08-24T07:41:40;5.47;;;1.60;;
5939;SDS011;2995;-31.998;115.906;2023-08-24T07:44:11;1.90;;;1.60;;
5939;SDS011;2995;-31.998;115.906;2023-08-24T07:46:44;3.20;;;1.50;;
5939;SDS011;2995;-31.998;115.906;2023-08-24T07:49:16;3.23;;;1.37;;
5939;SDS011;2995;-31.998;115.906;2023-08-24T07:51:47;2.70;;;1.30;;
5939;SDS011;2995;-31.998;115.906;2023-08-24T07:54:18;1.73;;;1.27;;
5939;SDS011;2995;-31.998;115.906;2023-08-24T07:56:49;4.70;;;1.63;;
5939;SDS011;2995;-31.998;115.906;2023-08-24T07:59:20;6.80;;;1.97;;
5939;SDS011;2995;-31.998;115.906;2023-08-24T08:01:54;1.87;;;1.33;;
5939;SDS011;2995;-31.998;115.906;2023-08-24T08:04:25;2.20;;;1.27;;
5939;SDS011;2995;-31.998;115.906;2023-08-24T08:06:56;1.90;;;1.50;;
5939;SDS011;2995;-31.998;115.906;2023-08-24T08:09:27;2.00;;;1.20;;
5939;SDS011;2995;-31.998;115.906;2023-08-24T08:11:58;2.47;;;1.57;;
5939;SDS011;2995;-31.998;115.906;2023-08-24T08:14:30;1.57;;;1.23;;
5939;SDS011;2995;-31.998;115.906;2023-08-24T08:17:03;2.80;;;1.33;;
5939;SDS011;2995;-31.998;115.906;2023-08-24T08:19:34;1.70;;;1.40;;
5939;SDS011;2995;-31.998;115.906;2023-08-24T08:22:06;5.97;;;1.60;;
5939;SDS011;2995;-31.998;115.906;2023-08-24T08:24:37;2.50;;;1.30;;
5939;SDS011;2995;-31.998;115.906;2023-08-24T08:27:08;4.83;;;2.07;;
5939;SDS011;2995;-31.998;115.906;2023-08-24T08:29:39;7.40;;;2.00;;
5939;SDS011;2995;-31.998;115.906;2023-08-24T08:32:13;18.10;;;12.53;;
5939;SDS011;2995;-31.998;115.906;2023-08-24T08:34:44;8.00;;;6.10;;
5939;SDS011;2995;-31.998;115.906;2023-08-24T08:37:15;15.43;;;13.93;;
5939;SDS011;2995;-31.998;115.906;2023-08-24T08:39:46;14.90;;;11.10;;
5939;SDS011;2995;-31.998;115.906;2023-08-24T08:42:18;29.00;;;21.97;;
5939;SDS011;2995;-31.998;115.906;2023-08-24T08:44:50;20.00;;;17.17;;
5939;SDS011;2995;-31.998;115.906;2023-08-24T08:47:24;6.67;;;5.37;;
5939;SDS011;2995;-31.998;115.906;2023-08-24T08:49:55;2.73;;;1.80;;
5939;SDS011;2995;-31.998;115.906;2023-08-24T08:52:29;3.53;;;1.07;;
5939;SDS011;2995;-31.998;115.906;2023-08-24T08:55:01;5.50;;;1.77;;
5939;SDS011;2995;-31.998;115.906;2023-08-24T08:57:35;2.43;;;1.50;;
5939;SDS011;2995;-31.998;115.906;2023-08-24T09:00:09;3.03;;;1.57;;
5939;SDS011;2995;-31.998;115.906;2023-08-24T09:02:45;4.90;;;2.10;;
5939;SDS011;2995;-31.998;115.906;2023-08-24T09:05:17;1.87;;;1.60;;
5939;SDS011;2995;-31.998;115.906;2023-08-24T09:07:49;3.60;;;1.67;;
5939;SDS011;2995;-31.998;115.906;2023-08-24T09:10:20;6.77;;;3.73;;
5939;SDS011;2995;-31.998;115.906;2023-08-24T09:12:52;4.20;;;3.80;;
5939;SDS011;2995;-31.998;115.906;2023-08-24T09:15:26;1.80;;;1.70;;
5939;SDS011;2995;-31.998;115.906;2023-08-24T09:18:05;1.67;;;1.57;;
5939;SDS011;2995;-31.998;115.906;2023-08-24T09:20:36;4.00;;;2.27;;
5939;SDS011;2995;-31.998;115.906;2023-08-24T09:23:11;2.00;;;1.20;;
5939;SDS011;2995;-31.998;115.906;2023-08-24T09:25:48;1.40;;;1.27;;
5939;SDS011;2995;-31.998;115.906;2023-08-24T09:28:22;2.53;;;2.00;;
5939;SDS011;2995;-31.998;115.906;2023-08-24T09:30:54;4.87;;;3.40;;
5939;SDS011;2995;-31.998;115.906;2023-08-24T09:33:27;3.20;;;2.90;;
5939;SDS011;2995;-31.998;115.906;2023-08-24T09:35:59;6.10;;;1.73;;
5939;SDS011;2995;-31.998;115.906;2023-08-24T09:38:30;3.00;;;1.17;;
5939;SDS011;2995;-31.998;115.906;2023-08-24T09:41:02;2.20;;;1.10;;
5939;SDS011;2995;-31.998;115.906;2023-08-24T09:43:33;3.60;;;1.73;;
5939;SDS011;2995;-31.998;115.906;2023-08-24T09:46:05;5.73;;;1.37;;
5939;SDS011;2995;-31.998;115.906;2023-08-24T09:48:38;3.70;;;1.40;;
5939;SDS011;2995;-31.998;115.906;2023-08-24T09:51:10;3.50;;;1.07;;
5939;SDS011;2995;-31.998;115.906;2023-08-24T09:53:43;4.50;;;2.03;;
5939;SDS011;2995;-31.998;115.906;2023-08-24T09:56:14;2.60;;;1.87;;
5939;SDS011;2995;-31.998;115.906;2023-08-24T09:58:47;4.30;;;2.10;;
5939;SDS011;2995;-31.998;115.906;2023-08-24T10:01:20;3.03;;;1.80;;
5939;SDS011;2995;-31.998;115.906;2023-08-24T10:03:54;3.63;;;2.00;;
5939;SDS011;2995;-31.998;115.906;2023-08-24T10:06:29;2.83;;;1.30;;
5939;SDS011;2995;-31.998;115.906;2023-08-24T10:09:01;6.50;;;2.20;;
5939;SDS011;2995;-31.998;115.906;2023-08-24T10:11:36;6.60;;;5.17;;
5939;SDS011;2995;-31.998;115.906;2023-08-24T10:14:13;4.30;;;2.90;;
5939;SDS011;2995;-31.998;115.906;2023-08-24T10:16:50;4.73;;;2.33;;
5939;SDS011;2995;-31.998;115.906;2023-08-24T10:19:23;13.43;;;10.13;;
5939;SDS011;2995;-31.998;115.906;2023-08-24T10:21:55;9.50;;;8.00;;
5939;SDS011;2995;-31.998;115.906;2023-08-24T10:24:30;11.03;;;6.00;;
5939;SDS011;2995;-31.998;115.906;2023-08-24T10:27:02;6.73;;;6.13;;
5939;SDS011;2995;-31.998;115.906;2023-08-24T10:29:34;5.10;;;3.33;;
5939;SDS011;2995;-31.998;115.906;2023-08-24T10:32:06;3.60;;;1.77;;
5939;SDS011;2995;-31.998;115.906;2023-08-24T10:34:40;5.47;;;1.50;;
5939;SDS011;2995;-31.998;115.906;2023-08-24T10:37:11;2.57;;;1.30;;
5939;SDS011;2995;-31.998;115.906;2023-08-24T10:39:46;3.87;;;1.30;;
5939;SDS011;2995;-31.998;115.906;2023-08-24T10:42:18;3.63;;;1.63;;
5939;SDS011;2995;-31.998;115.906;2023-08-24T10:44:49;4.80;;;1.40;;
5939;SDS011;2995;-31.998;115.906;2023-08-24T10:47:21;3.57;;;1.80;;
5939;SDS011;2995;-31.998;115.906;2023-08-24T10:50:00;4.60;;;1.60;;
5939;SDS011;2995;-31.998;115.906;2023-08-24T10:52:32;6.83;;;2.37;;
5939;SDS011;2995;-31.998;115.906;2023-08-24T10:55:21;2.67;;;1.43;;
5939;SDS011;2995;-31.998;115.906;2023-08-24T10:57:56;2.43;;;1.40;;
5939;SDS011;2995;-31.998;115.906;2023-08-24T11:00:28;2.60;;;1.30;;
5939;SDS011;2995;-31.998;115.906;2023-08-24T11:02:59;2.67;;;1.23;;
5939;SDS011;2995;-31.998;115.906;2023-08-24T11:05:33;3.60;;;1.50;;
5939;SDS011;2995;-31.998;115.906;2023-08-24T11:08:04;2.27;;;1.20;;
5939;SDS011;2995;-31.998;115.906;2023-08-24T11:10:45;2.70;;;1.60;;
5939;SDS011;2995;-31.998;115.906;2023-08-24T11:13:17;2.43;;;1.93;;
5939;SDS011;2995;-31.998;115.906;2023-08-24T11:15:50;2.57;;;1.60;;
5939;SDS011;2995;-31.998;115.906;2023-08-24T11:18:25;4.77;;;1.50;;
5939;SDS011;2995;-31.998;115.906;2023-08-24T11:20:59;2.57;;;2.00;;
5939;SDS011;2995;-31.998;115.906;2023-08-24T11:23:31;2.20;;;2.00;;
5939;SDS011;2995;-31.998;115.906;2023-08-24T11:26:02;3.80;;;1.87;;
5939;SDS011;2995;-31.998;115.906;2023-08-24T11:28:33;3.60;;;1.57;;
5939;SDS011;2995;-31.998;115.906;2023-08-24T11:31:08;2.03;;;1.70;;
5939;SDS011;2995;-31.998;115.906;2023-08-24T11:33:40;4.13;;;1.93;;
5939;SDS011;2995;-31.998;115.906;2023-08-24T11:36:14;2.80;;;2.47;;
5939;SDS011;2995;-31.998;115.906;2023-08-24T11:38:45;3.60;;;2.00;;
5939;SDS011;2995;-31.998;115.906;2023-08-24T11:41:16;6.17;;;2.57;;
5939;SDS011;2995;-31.998;115.906;2023-08-24T11:43:48;2.20;;;2.00;;
5939;SDS011;2995;-31.998;115.906;2023-08-24T11:46:28;2.63;;;1.93;;
5939;SDS011;2995;-31.998;115.906;2023-08-24T11:48:59;6.37;;;2.37;;
5939;SDS011;2995;-31.998;115.906;2023-08-24T11:51:35;3.23;;;2.73;;
5939;SDS011;2995;-31.998;115.906;2023-08-24T11:54:07;2.37;;;2.03;;
5939;SDS011;2995;-31.998;115.906;2023-08-24T11:56:41;3.43;;;2.57;;
5939;SDS011;2995;-31.998;115.906;2023-08-24T11:59:13;3.97;;;2.70;;
5939;SDS011;2995;-31.998;115.906;2023-08-24T12:01:44;4.27;;;3.17;;
5939;SDS011;2995;-31.998;115.906;2023-08-24T12:04:16;3.43;;;2.93;;
5939;SDS011;2995;-31.998;115.906;2023-08-24T12:06:49;6.57;;;3.50;;
5939;SDS011;2995;-31.998;115.906;2023-08-24T12:09:21;5.23;;;2.50;;
5939;SDS011;2995;-31.998;115.906;2023-08-24T12:11:55;4.43;;;3.00;;
5939;SDS011;2995;-31.998;115.906;2023-08-24T12:14:26;6.03;;;2.30;;
5939;SDS011;2995;-31.998;115.906;2023-08-24T12:17:09;4.17;;;3.40;;
5939;SDS011;2995;-31.998;115.906;2023-08-24T12:19:41;6.57;;;3.03;;
5939;SDS011;2995;-31.998;115.906;2023-08-24T12:22:15;4.30;;;3.60;;
5939;SDS011;2995;-31.998;115.906;2023-08-24T12:24:48;3.90;;;3.60;;
5939;SDS011;2995;-31.998;115.906;2023-08-24T12:27:20;4.40;;;3.60;;
5939;SDS011;2995;-31.998;115.906;2023-08-24T12:29:52;4.47;;;4.07;;
5939;SDS011;2995;-31.998;115.906;2023-08-24T12:32:23;5.27;;;3.70;;
5939;SDS011;2995;-31.998;115.906;2023-08-24T12:34:57;4.40;;;4.00;;
5939;SDS011;2995;-31.998;115.906;2023-08-24T12:37:31;5.23;;;4.60;;
5939;SDS011;2995;-31.998;115.906;2023-08-24T12:40:02;5.00;;;4.10;;
5939;SDS011;2995;-31.998;115.906;2023-08-24T12:42:34;8.80;;;4.23;;
5939;SDS011;2995;-31.998;115.906;2023-08-24T12:45:06;4.90;;;4.17;;
5939;SDS011;2995;-31.998;115.906;2023-08-24T12:47:37;5.23;;;4.73;;
5939;SDS011;2995;-31.998;115.906;2023-08-24T12:50:09;5.33;;;4.40;;
5939;SDS011;2995;-31.998;115.906;2023-08-24T12:52:42;5.37;;;4.10;;
5939;SDS011;2995;-31.998;115.906;2023-08-24T12:55:13;8.73;;;4.00;;
5939;SDS011;2995;-31.998;115.906;2023-08-24T12:57:44;7.00;;;4.00;;
5939;SDS011;2995;-31.998;115.906;2023-08-24T13:00:16;6.53;;;4.73;;
5939;SDS011;2995;-31.998;115.906;2023-08-24T13:02:47;5.13;;;4.63;;
5939;SDS011;2995;-31.998;115.906;2023-08-24T13:05:18;6.80;;;4.97;;
5939;SDS011;2995;-31.998;115.906;2023-08-24T13:07:52;8.80;;;4.60;;
5939;SDS011;2995;-31.998;115.906;2023-08-24T13:10:23;7.37;;;5.23;;
5939;SDS011;2995;-31.998;115.906;2023-08-24T13:12:55;9.13;;;5.20;;
5939;SDS011;2995;-31.998;115.906;2023-08-24T13:15:27;5.00;;;4.50;;
5939;SDS011;2995;-31.998;115.906;2023-08-24T13:17:59;4.33;;;3.93;;
5939;SDS011;2995;-31.998;115.906;2023-08-24T13:20:30;4.93;;;4.37;;
5939;SDS011;2995;-31.998;115.906;2023-08-24T13:23:03;5.47;;;4.03;;
5939;SDS011;2995;-31.998;115.906;2023-08-24T13:25:34;4.20;;;3.53;;
5939;SDS011;2995;-31.998;115.906;2023-08-24T13:28:06;9.00;;;4.43;;
5939;SDS011;2995;-31.998;115.906;2023-08-24T13:30:37;5.73;;;4.20;;
5939;SDS011;2995;-31.998;115.906;2023-08-24T13:33:09;6.57;;;4.70;;
5939;SDS011;2995;-31.998;115.906;2023-08-24T13:35:41;4.37;;;3.97;;
5939;SDS011;2995;-31.998;115.906;2023-08-24T13:38:14;5.50;;;4.40;;
5939;SDS011;2995;-31.998;115.906;2023-08-24T13:40:45;6.07;;;3.97;;
5939;SDS011;2995;-31.998;115.906;2023-08-24T13:43:17;4.60;;;4.00;;
5939;SDS011;2995;-31.998;115.906;2023-08-24T13:45:49;7.73;;;4.50;;
5939;SDS011;2995;-31.998;115.906;2023-08-24T13:48:20;5.10;;;3.90;;
5939;SDS011;2995;-31.998;115.906;2023-08-24T13:50:53;7.97;;;3.80;;
5939;SDS011;2995;-31.998;115.906;2023-08-24T13:53:26;6.43;;;3.70;;
5939;SDS011;2995;-31.998;115.906;2023-08-24T13:55:57;4.83;;;4.33;;
5939;SDS011;2995;-31.998;115.906;2023-08-24T13:58:28;9.63;;;4.70;;
5939;SDS011;2995;-31.998;115.906;2023-08-24T14:01:00;4.73;;;3.90;;
5939;SDS011;2995;-31.998;115.906;2023-08-24T14:03:31;5.00;;;4.13;;
5939;SDS011;2995;-31.998;115.906;2023-08-24T14:06:03;8.17;;;4.53;;
5939;SDS011;2995;-31.998;115.906;2023-08-24T14:08:37;6.17;;;4.87;;
5939;SDS011;2995;-31.998;115.906;2023-08-24T14:11:08;5.60;;;3.73;;
5939;SDS011;2995;-31.998;115.906;2023-08-24T14:13:39;7.50;;;4.47;;
5939;SDS011;2995;-31.998;115.906;2023-08-24T14:16:10;6.93;;;4.50;;
5939;SDS011;2995;-31.998;115.906;2023-08-24T14:18:41;5.90;;;4.40;;
5939;SDS011;2995;-31.998;115.906;2023-08-24T14:21:14;7.60;;;4.53;;
5939;SDS011;2995;-31.998;115.906;2023-08-24T14:23:48;6.53;;;4.37;;
5939;SDS011;2995;-31.998;115.906;2023-08-24T14:26:19;5.20;;;4.70;;
5939;SDS011;2995;-31.998;115.906;2023-08-24T14:28:51;6.83;;;4.20;;
5939;SDS011;2995;-31.998;115.906;2023-08-24T14:31:23;5.27;;;4.83;;
5939;SDS011;2995;-31.998;115.906;2023-08-24T14:33:55;4.27;;;3.87;;
5939;SDS011;2995;-31.998;115.906;2023-08-24T14:36:28;5.53;;;4.90;;
5939;SDS011;2995;-31.998;115.906;2023-08-24T14:39:01;7.20;;;4.00;;
5939;SDS011;2995;-31.998;115.906;2023-08-24T14:41:33;5.00;;;4.37;;
5939;SDS011;2995;-31.998;115.906;2023-08-24T14:44:05;5.77;;;4.30;;
5939;SDS011;2995;-31.998;115.906;2023-08-24T14:46:36;5.60;;;4.57;;
5939;SDS011;2995;-31.998;115.906;2023-08-24T14:49:07;7.93;;;5.00;;
5939;SDS011;2995;-31.998;115.906;2023-08-24T14:51:38;10.00;;;4.20;;
5939;SDS011;2995;-31.998;115.906;2023-08-24T14:54:12;9.80;;;4.40;;
5939;SDS011;2995;-31.998;115.906;2023-08-24T14:56:43;6.03;;;4.80;;
5939;SDS011;2995;-31.998;115.906;2023-08-24T14:59:14;6.10;;;5.10;;
5939;SDS011;2995;-31.998;115.906;2023-08-24T15:01:45;5.83;;;4.73;;
5939;SDS011;2995;-31.998;115.906;2023-08-24T15:04:17;10.97;;;5.77;;